Time;durP1;ratioP1;P1;durP2;ratioP2;P2;SDS_P1;SDS_P2;PMS_P1;PMS_P2;Temp;Humidity;BMP_temperature;BMP_pressure;BME280_temperature;BME280_humidity;BME280_pressure;Samples;Min_cycle;Max_cycle;Signal;HPM_P1;HPM_P2
2022/04/14 00:02:00;;;;;;;5.62;3.60;;;;;;;12.68;53.08;101587.83;1658622;86;21111;-67
2022/04/14 00:04:27;;;;;;;6.35;3.17;;;;;;;12.68;52.97;101583.91;1657576;86;21462;-66
2022/04/14 00:06:56;;;;;;;4.53;3.42;;;;;;;12.71;52.46;101585.19;1655516;85;21047;-66
2022/04/14 00:09:23;;;;;;;5.97;3.27;;;;;;;12.68;52.32;101581.30;1646841;86;21103;-66
2022/04/14 00:11:52;;;;;;;4.58;3.33;;;;;;;12.68;52.48;101591.75;1658952;86;21021;-66
2022/04/14 00:14:20;;;;;;;5.15;2.80;;;;;;;12.72;52.55;101589.94;1656966;86;21563;-66
2022/04/14 00:16:47;;;;;;;6.05;3.10;;;;;;;12.73;52.44;101588.63;1657105;86;21571;-66
2022/04/14 00:19:16;;;;;;;10.58;3.98;;;;;;;12.77;52.37;101599.44;1657697;86;21063;-66
2022/04/14 00:21:44;;;;;;;6.40;3.17;;;;;;;12.80;52.20;101590.66;1658589;86;21055;-66
2022/04/14 00:24:12;;;;;;;5.30;3.00;;;;;;;12.80;51.97;101588.92;1658645;86;21577;-66
2022/04/14 00:26:40;;;;;;;4.15;3.20;;;;;;;12.80;52.45;101583.70;1646316;86;21062;-66
2022/04/14 00:29:07;;;;;;;7.87;3.40;;;;;;;12.81;52.13;101581.52;1656015;86;21099;-66
2022/04/14 00:31:35;;;;;;;4.33;3.42;;;;;;;12.76;52.16;101591.17;1657735;86;21039;-66
2022/04/14 00:34:02;;;;;;;7.45;3.75;;;;;;;12.74;52.16;101589.03;1657996;86;21031;-66
2022/04/14 00:36:33;;;;;;;5.97;2.95;;;;;;;12.72;52.32;101582.11;1657874;86;21056;-65
2022/04/14 00:39:00;;;;;;;4.75;2.95;;;;;;;12.72;52.53;101588.20;1645358;86;21066;-66
2022/04/14 00:41:27;;;;;;;5.87;3.33;;;;;;;12.71;52.27;101585.19;1656870;86;21587;-66
2022/04/14 00:43:56;;;;;;;3.95;2.77;;;;;;;12.71;52.20;101586.92;1656874;86;21035;-66
2022/04/14 00:46:23;;;;;;;4.75;2.98;;;;;;;12.72;52.27;101588.20;1651087;86;21051;-66
2022/04/14 00:48:50;;;;;;;10.03;4.00;;;;;;;12.75;52.29;101588.16;1658132;85;21556;-66
2022/04/14 00:51:17;;;;;;;4.35;3.02;;;;;;;12.76;52.03;101587.25;1654425;86;21051;-66
2022/04/14 00:53:44;;;;;;;5.28;2.98;;;;;;;12.77;51.84;101595.95;1653376;86;21071;-66
2022/04/14 00:56:12;;;;;;;5.28;3.10;;;;;;;12.84;51.74;101590.59;1652941;86;21035;-66
2022/04/14 00:58:40;;;;;;;4.55;3.08;;;;;;;12.87;51.59;101587.94;1653165;86;21053;-66
2022/04/14 01:01:08;;;;;;;5.75;2.50;;;;;;;12.86;51.70;101594.03;1653062;86;21059;-66
2022/04/14 01:03:36;;;;;;;5.22;2.87;;;;;;;12.87;51.53;101593.16;1653864;86;21099;-66
2022/04/14 01:06:04;;;;;;;6.90;3.62;;;;;;;12.85;51.28;101597.55;1652189;86;21115;-67
2022/04/14 01:08:33;;;;;;;4.75;2.58;;;;;;;12.83;51.14;101594.11;1655561;86;21106;-66
2022/04/14 01:11:01;;;;;;;7.42;2.47;;;;;;;12.82;51.10;101585.84;1656023;86;21059;-66
2022/04/14 01:13:29;;;;;;;6.00;3.02;;;;;;;12.83;51.31;101587.58;1655266;86;21047;-66
2022/04/14 01:15:58;;;;;;;8.08;3.20;;;;;;;12.84;50.86;101587.98;1652891;86;21563;-66
2022/04/14 01:18:27;;;;;;;5.55;2.58;;;;;;;12.82;50.80;101581.92;1653197;85;21500;-67
2022/04/14 01:20:55;;;;;;;6.20;2.55;;;;;;;12.79;50.87;101587.22;1653218;86;21083;-66
2022/04/14 01:23:38;;;;;;;4.10;2.65;;;;;;;12.77;51.00;101594.66;1652848;85;21028;-66
2022/04/14 01:26:05;;;;;;;4.40;2.70;;;;;;;12.73;51.02;101606.91;1569108;91;21129;-66
2022/04/14 01:28:33;;;;;;;4.30;2.40;;;;;;;12.69;51.36;101602.63;1569323;91;21089;-66
2022/04/14 01:31:00;;;;;;;5.10;2.62;;;;;;;12.68;50.92;101609.16;1569188;91;21149;-66
2022/04/14 01:33:27;;;;;;;4.55;2.87;;;;;;;12.65;51.07;101602.23;1566720;91;21104;-66
2022/04/14 01:35:54;;;;;;;6.50;2.92;;;;;;;12.63;51.11;101604.01;1568890;91;21121;-66
2022/04/14 01:38:22;;;;;;;4.03;2.42;;;;;;;12.61;51.25;101600.56;1558715;91;21164;-66
2022/04/14 01:40:49;;;;;;;6.30;2.55;;;;;;;12.60;51.43;101609.30;1566515;91;21550;-66
2022/04/14 01:43:18;;;;;;;6.28;2.45;;;;;;;12.56;51.19;101606.32;1566821;91;21046;-65
2022/04/14 01:45:50;;;;;;;3.25;1.98;;;;;;;12.54;51.34;101606.79;1566827;91;21121;-66
2022/04/14 01:48:16;;;;;;;8.68;2.75;;;;;;;12.53;51.07;101607.66;1562571;92;21102;-67
2022/04/14 01:50:44;;;;;;;5.83;2.50;;;;;;;12.53;51.19;101606.35;1567007;91;21661;-66
2022/04/14 01:53:12;;;;;;;4.87;2.70;;;;;;;12.54;51.28;101613.75;1567065;91;21114;-66
2022/04/14 01:55:39;;;;;;;4.10;2.80;;;;;;;12.53;51.10;101615.96;1566954;92;21125;-66
2022/04/14 01:58:08;;;;;;;3.65;2.42;;;;;;;12.53;51.31;101616.80;1566989;91;21073;-66
2022/04/14 02:00:37;;;;;;;2.55;2.17;;;;;;;12.53;51.20;101619.41;1566879;92;21112;-66
2022/04/14 02:03:07;;;;;;;3.52;2.02;;;;;;;12.53;51.11;101615.48;1576463;90;21139;-66
2022/04/14 02:05:35;;;;;;;3.52;2.27;;;;;;;12.53;50.93;101618.10;1590575;90;21052;-66
2022/04/14 02:08:05;;;;;;;6.12;2.25;;;;;;;12.51;50.80;101614.66;1590422;90;21118;-66
2022/04/14 02:10:33;;;;;;;3.83;2.47;;;;;;;12.50;51.10;101612.95;1590759;90;21016;-66
2022/04/14 02:13:01;;;;;;;5.78;2.80;;;;;;;12.49;51.26;101615.59;1590440;90;21057;-67
2022/04/14 02:15:29;;;;;;;5.25;2.67;;;;;;;12.48;51.39;101609.50;1590395;90;21052;-67
2022/04/14 02:17:57;;;;;;;3.02;2.25;;;;;;;12.50;51.43;101607.73;1590384;90;21079;-67
2022/04/14 02:20:25;;;;;;;3.75;2.50;;;;;;;12.52;51.71;101611.17;1590464;90;21047;-64
2022/04/14 02:22:54;;;;;;;5.60;2.75;;;;;;;12.52;51.25;101611.17;1663138;85;21086;-64
2022/04/14 02:25:21;;;;;;;3.95;2.30;;;;;;;12.48;51.11;101614.72;1664968;85;21070;-67
2022/04/14 02:27:49;;;;;;;5.17;2.22;;;;;;;12.48;51.45;101625.16;1666392;85;21110;-68
2022/04/14 02:30:17;;;;;;;5.42;2.72;;;;;;;12.50;51.36;101629.91;1667009;85;21034;-65
2022/04/14 02:32:44;;;;;;;4.30;2.58;;;;;;;12.50;51.20;101623.39;1667099;85;21107;-64
2022/04/14 02:35:11;;;;;;;3.83;2.35;;;;;;;12.51;51.20;101629.02;1665091;85;21102;-64
2022/04/14 02:37:37;;;;;;;4.08;2.25;;;;;;;12.51;51.22;101629.48;1664236;85;21523;-64
2022/04/14 02:40:06;;;;;;;3.37;2.17;;;;;;;12.51;50.81;101630.31;1664813;85;21046;-65
2022/04/14 02:42:33;;;;;;;4.80;2.37;;;;;;;12.50;50.68;101633.83;1664913;85;21054;-64
2022/04/14 02:45:00;;;;;;;4.05;2.20;;;;;;;12.51;50.88;101642.06;1661503;84;21147;-64
2022/04/14 02:47:26;;;;;;;3.98;2.02;;;;;;;12.50;50.67;101636.44;1657725;86;21078;-64
2022/04/14 02:49:54;;;;;;;5.42;2.52;;;;;;;12.48;51.11;101638.22;1657991;86;21055;-64
2022/04/14 02:52:21;;;;;;;4.22;2.45;;;;;;;12.47;51.09;101628.64;1655933;86;21102;-64
2022/04/14 02:54:50;;;;;;;4.72;2.15;;;;;;;12.45;51.46;101625.19;1656322;86;21591;-65
2022/04/14 02:57:17;;;;;;;4.75;2.37;;;;;;;12.43;51.62;101624.36;1657197;86;21018;-64
2022/04/14 02:59:45;;;;;;;3.45;1.75;;;;;;;12.43;51.99;101623.05;1657513;86;21031;-64
2022/04/14 03:02:12;;;;;;;3.02;2.00;;;;;;;12.44;52.29;101624.80;1658041;85;21523;-65
2022/04/14 03:04:39;;;;;;;3.58;2.25;;;;;;;12.48;52.34;101629.08;1647745;86;21070;-64
2022/04/14 03:07:06;;;;;;;5.55;2.37;;;;;;;12.40;52.47;101629.64;1655523;86;21082;-65
2022/04/14 03:09:33;;;;;;;3.67;2.25;;;;;;;12.48;51.44;101637.34;1657697;86;21516;-65
2022/04/14 03:12:00;;;;;;;3.70;2.00;;;;;;;12.52;51.08;101647.72;1657936;86;21070;-65
2022/04/14 03:14:27;;;;;;;5.35;2.30;;;;;;;12.52;50.96;101650.33;1656281;86;21027;-65
2022/04/14 03:16:57;;;;;;;3.65;2.42;;;;;;;12.54;50.96;101651.17;1623795;86;21602;-67
2022/04/14 03:19:25;;;;;;;3.72;2.12;;;;;;;12.52;50.98;101649.46;1625110;88;21086;-66
2022/04/14 03:21:52;;;;;;;4.97;2.75;;;;;;;12.53;50.95;101662.48;1587660;89;21108;-66
2022/04/14 03:24:19;;;;;;;4.25;2.67;;;;;;;12.51;50.87;101656.89;1598887;89;21096;-66
2022/04/14 03:26:46;;;;;;;4.50;2.45;;;;;;;12.49;50.95;101658.20;1595192;89;21065;-66
2022/04/14 03:29:13;;;;;;;3.58;2.17;;;;;;;12.49;50.98;101663.88;1618491;88;21109;-66
2022/04/14 03:31:39;;;;;;;5.72;2.10;;;;;;;12.41;51.11;101665.28;1614693;88;21497;-66
2022/04/14 03:34:06;;;;;;;2.70;1.95;;;;;;;12.41;50.93;101665.28;1615003;88;21072;-66
2022/04/14 03:36:34;;;;;;;2.95;2.20;;;;;;;12.38;51.12;101669.69;1617192;88;21079;-66
2022/04/14 03:39:01;;;;;;;3.75;2.15;;;;;;;12.34;50.98;101671.49;1615995;88;21052;-66
2022/04/14 03:41:29;;;;;;;3.37;2.22;;;;;;;12.32;50.92;101674.57;1615144;88;21582;-67
2022/04/14 03:43:57;;;;;;;6.33;2.12;;;;;;;12.31;51.28;101679.35;1616137;88;21071;-68
2022/04/14 03:46:24;;;;;;;2.72;2.10;;;;;;;12.30;51.36;101682.86;1650343;86;21063;-67
2022/04/14 03:48:51;;;;;;;4.55;1.98;;;;;;;12.29;50.80;101685.03;1655789;86;21040;-67
2022/04/14 03:51:18;;;;;;;4.53;2.25;;;;;;;12.26;51.09;101679.41;1635902;86;21546;-66
2022/04/14 03:53:45;;;;;;;6.83;2.50;;;;;;;12.28;51.10;101692.00;1634998;86;21124;-67
2022/04/14 03:56:13;;;;;;;4.60;2.25;;;;;;;12.26;50.89;101685.09;1620037;88;21100;-66
2022/04/14 03:58:40;;;;;;;3.87;2.10;;;;;;;12.26;51.01;101691.63;1625413;87;21121;-66
2022/04/14 04:01:08;;;;;;;4.72;2.20;;;;;;;12.23;50.90;101689.03;1634597;87;21587;-67
2022/04/14 04:03:35;;;;;;;4.03;2.17;;;;;;;12.21;50.84;101688.20;1632836;87;21064;-67
2022/04/14 04:06:01;;;;;;;4.40;2.25;;;;;;;12.21;51.23;101681.23;1632550;87;21051;-66
2022/04/14 04:08:29;;;;;;;3.10;1.82;;;;;;;12.19;51.48;101688.66;1632906;87;21126;-66
2022/04/14 04:10:57;;;;;;;2.15;1.80;;;;;;;12.19;51.47;101689.96;1632692;87;21083;-65
2022/04/14 04:13:24;;;;;;;3.47;2.42;;;;;;;12.19;51.59;101692.57;1607925;89;21035;-64
2022/04/14 04:15:51;;;;;;;3.52;2.10;;;;;;;12.22;51.62;101700.34;1635386;87;21548;-64
2022/04/14 04:18:18;;;;;;;5.87;2.12;;;;;;;12.24;51.45;101706.44;1635589;87;21050;-64
2022/04/14 04:20:45;;;;;;;3.08;1.70;;;;;;;12.24;51.64;101711.66;1633570;87;21094;-65
2022/04/14 04:23:12;;;;;;;3.08;1.70;;;;;;;12.24;51.25;101719.48;1633961;87;21059;-65
2022/04/14 04:25:40;;;;;;;4.08;2.08;;;;;;;12.24;51.20;101714.27;1634544;87;21087;-65
2022/04/14 04:28:08;;;;;;;2.47;2.08;;;;;;;12.29;51.39;101721.57;1633225;87;21070;-65
2022/04/14 04:30:35;;;;;;;3.25;2.05;;;;;;;12.35;51.60;101714.96;1632877;87;21091;-66
2022/04/14 04:33:05;;;;;;;2.55;2.10;;;;;;;12.40;51.27;101728.83;1632662;87;21059;-66
2022/04/14 04:35:32;;;;;;;6.08;2.45;;;;;;;12.43;51.21;101730.07;1632786;87;21035;-65
2022/04/14 04:37:59;;;;;;;4.35;2.40;;;;;;;12.46;51.45;101725.26;1633155;87;21077;-66
2022/04/14 04:40:26;;;;;;;3.75;2.33;;;;;;;12.48;51.27;101730.89;1634318;87;21071;-65
2022/04/14 04:42:53;;;;;;;3.60;2.22;;;;;;;12.51;51.11;101734.74;1635461;87;21111;-65
2022/04/14 04:45:21;;;;;;;9.75;2.95;;;;;;;12.54;50.73;101737.32;1633238;87;21581;-66
2022/04/14 04:47:48;;;;;;;3.35;2.20;;;;;;;12.53;51.02;101734.27;1625811;87;21062;-65
2022/04/14 04:50:15;;;;;;;4.95;2.33;;;;;;;12.57;51.24;101740.34;1627370;87;21115;-66
2022/04/14 04:52:43;;;;;;;2.67;1.90;;;;;;;12.59;51.28;101736.80;1624711;87;21091;-66
2022/04/14 04:55:10;;;;;;;4.03;2.00;;;;;;;12.64;51.26;101738.05;1629584;87;21516;-66
2022/04/14 04:57:37;;;;;;;3.87;2.10;;;;;;;12.65;51.25;101736.70;1616979;87;21067;-65
2022/04/14 05:00:05;;;;;;;3.42;2.40;;;;;;;12.66;51.33;101734.53;1628340;87;21075;-67
2022/04/14 05:02:33;;;;;;;3.17;2.10;;;;;;;12.65;51.55;101735.40;1629465;87;21570;-66
2022/04/14 05:04:59;;;;;;;3.08;2.12;;;;;;;12.67;51.82;101734.97;1628749;87;21047;-66
2022/04/14 05:07:26;;;;;;;3.85;2.22;;;;;;;12.69;51.37;101730.58;1629555;87;21086;-66
2022/04/14 05:09:52;;;;;;;3.50;2.35;;;;;;;12.71;50.96;101724.89;1619168;87;21082;-66
2022/04/14 05:12:20;;;;;;;5.72;2.37;;;;;;;12.71;50.46;101727.50;1630594;87;21155;-67
2022/04/14 05:14:48;;;;;;;2.58;1.82;;;;;;;12.72;50.19;101726.60;1630141;87;21079;-67
2022/04/14 05:17:16;;;;;;;3.30;2.12;;;;;;;12.69;50.22;101731.89;1611994;87;21117;-66
2022/04/14 05:19:43;;;;;;;3.85;2.22;;;;;;;12.68;50.37;101730.15;1613515;88;21092;-66
2022/04/14 05:22:12;;;;;;;4.08;2.27;;;;;;;12.70;50.59;101728.37;1629840;87;21103;-66
2022/04/14 05:24:40;;;;;;;3.25;2.40;;;;;;;12.76;50.62;101741.34;1630468;87;21548;-66
2022/04/14 05:27:08;;;;;;;6.08;2.47;;;;;;;12.83;50.80;101746.91;1608137;87;21114;-66
2022/04/14 05:29:37;;;;;;;3.20;1.90;;;;;;;12.88;50.84;101748.98;1609252;88;21109;-65
2022/04/14 05:32:05;;;;;;;6.08;2.60;;;;;;;12.90;50.56;101745.91;1630727;87;21039;-65
2022/04/14 05:34:33;;;;;;;6.47;2.05;;;;;;;12.92;50.64;101750.66;1628732;87;21138;-66
2022/04/14 05:36:59;;;;;;;3.02;1.90;;;;;;;12.96;50.56;101754.95;1629472;87;21078;-64
2022/04/14 05:39:26;;;;;;;4.83;2.60;;;;;;;12.99;50.35;101748.38;1629544;87;21539;-64
2022/04/14 05:41:53;;;;;;;4.37;2.80;;;;;;;13.01;50.31;101753.14;1630775;87;21106;-64
2022/04/14 05:44:19;;;;;;;3.58;2.08;;;;;;;13.08;50.29;101751.77;1630544;87;21103;-65
2022/04/14 05:46:46;;;;;;;4.10;2.30;;;;;;;13.17;49.88;101760.78;1628069;87;21151;-65
2022/04/14 05:49:15;;;;;;;3.55;2.45;;;;;;;13.31;49.81;101756.17;1627756;87;21047;-65
2022/04/14 05:51:42;;;;;;;4.35;2.37;;;;;;;13.46;49.38;101763.73;1627824;87;21051;-65
2022/04/14 05:54:09;;;;;;;2.75;2.15;;;;;;;13.63;48.93;101763.00;1621767;87;21127;-65
2022/04/14 05:56:36;;;;;;;3.37;2.40;;;;;;;13.85;48.62;101759.08;1630265;87;21071;-64
2022/04/14 05:59:03;;;;;;;3.70;2.15;;;;;;;14.13;48.34;101772.06;1612185;87;21101;-65
2022/04/14 06:01:30;;;;;;;3.47;2.70;;;;;;;14.40;47.55;101755.81;1612045;88;21030;-64
2022/04/14 06:03:57;;;;;;;4.25;2.15;;;;;;;14.57;46.44;101758.91;1628251;87;21568;-65
2022/04/14 06:06:26;;;;;;;5.50;2.67;;;;;;;14.61;46.27;101765.80;1627641;87;21063;-65
2022/04/14 06:08:53;;;;;;;3.87;2.35;;;;;;;14.68;46.37;101770.02;1625051;87;21067;-65
2022/04/14 06:11:21;;;;;;;4.03;2.70;;;;;;;14.76;46.46;101774.20;1629385;87;21116;-66
2022/04/14 06:13:48;;;;;;;4.03;2.42;;;;;;;14.90;46.85;101777.40;1630192;87;21091;-65
2022/04/14 06:16:16;;;;;;;2.77;2.10;;;;;;;15.12;46.57;101770.30;1630611;87;21191;-65
2022/04/14 06:18:44;;;;;;;2.65;2.10;;;;;;;15.42;45.74;101773.91;1630867;87;21550;-65
2022/04/14 06:21:11;;;;;;;3.35;2.50;;;;;;;15.60;45.24;101774.77;1628396;87;21063;-65
2022/04/14 06:23:38;;;;;;;4.80;2.37;;;;;;;15.77;44.81;101774.31;1619002;87;22139;-65
2022/04/14 06:26:05;;;;;;;3.98;2.62;;;;;;;15.91;44.46;101778.30;1629475;87;21067;-66
2022/04/14 06:28:34;;;;;;;4.20;2.58;;;;;;;15.95;44.13;101792.22;1630008;87;21074;-65
2022/04/14 06:31:02;;;;;;;5.47;2.70;;;;;;;15.92;44.46;101791.84;1630592;87;21107;-65
2022/04/14 06:33:30;;;;;;;5.28;3.33;;;;;;;15.91;44.67;101799.30;1629011;87;21500;-66
2022/04/14 06:36:00;;;;;;;3.27;2.70;;;;;;;15.86;44.67;101798.58;1627847;87;21020;-65
2022/04/14 06:38:28;;;;;;;4.28;2.77;;;;;;;15.89;44.98;101803.72;1628004;87;21528;-66
2022/04/14 06:40:55;;;;;;;6.40;3.33;;;;;;;16.01;44.55;101798.14;1628000;87;21075;-65
2022/04/14 06:43:24;;;;;;;4.45;2.67;;;;;;;16.03;44.94;101796.33;1627910;87;21121;-65
2022/04/14 06:45:52;;;;;;;3.90;2.85;;;;;;;16.06;44.64;101793.63;1615597;86;21126;-66
2022/04/14 06:48:18;;;;;;;5.42;2.60;;;;;;;16.00;44.28;101808.69;1625846;88;21539;-66
2022/04/14 06:50:45;;;;;;;6.05;3.05;;;;;;;15.94;44.84;101809.73;1613480;88;21095;-65
2022/04/14 06:53:12;;;;;;;4.10;2.80;;;;;;;16.01;45.08;101816.52;1605745;88;21076;-65
2022/04/14 06:55:42;;;;;;;6.20;2.80;;;;;;;16.16;45.07;101817.41;1611476;88;21064;-65
2022/04/14 06:58:08;;;;;;;6.12;2.50;;;;;;;16.29;45.04;101819.25;1617178;88;21115;-65
2022/04/14 07:00:35;;;;;;;3.72;2.80;;;;;;;16.45;44.79;101822.28;1616505;88;21539;-66
2022/04/14 07:03:01;;;;;;;2.75;2.30;;;;;;;16.62;44.58;101825.32;1615048;88;21075;-65
2022/04/14 07:05:28;;;;;;;4.20;2.80;;;;;;;16.77;44.01;101822.24;1613666;88;21095;-65
2022/04/14 07:07:57;;;;;;;9.33;3.25;;;;;;;16.88;43.39;101825.38;1620307;88;21528;-65
2022/04/14 07:10:27;;;;;;;4.75;2.50;;;;;;;16.90;43.22;101824.44;1613848;88;21068;-66
2022/04/14 07:12:53;;;;;;;3.80;2.70;;;;;;;16.89;42.93;101823.18;1614673;88;21028;-65
2022/04/14 07:15:20;;;;;;;4.15;2.90;;;;;;;16.79;42.96;101820.43;1614777;88;21131;-66
2022/04/14 07:17:48;;;;;;;5.03;2.50;;;;;;;16.64;43.83;101824.38;1614266;87;21579;-66
2022/04/14 07:20:14;;;;;;;3.70;2.90;;;;;;;16.65;43.79;101810.79;1611893;88;21044;-65
2022/04/14 07:22:47;;;;;;;3.83;2.52;;;;;;;16.73;43.58;101814.05;1612646;88;21108;-66
2022/04/14 07:25:15;;;;;;;3.95;2.33;;;;;;;16.83;43.71;101816.80;1614422;88;21088;-65
2022/04/14 07:27:43;;;;;;;3.50;2.25;;;;;;;16.98;43.46;101820.28;1614418;88;21080;-65
2022/04/14 07:30:13;;;;;;;4.33;2.35;;;;;;;17.06;43.08;101823.53;1614334;88;21590;-65
2022/04/14 07:35:10;;;;;;;3.27;2.22;;;;;;;16.99;43.08;101825.93;1541240;92;21143;-65
2022/04/14 07:37:38;;;;;;;4.42;2.37;;;;;;;16.98;43.10;101828.17;1550825;92;21128;-65
2022/04/14 07:40:09;;;;;;;3.22;2.35;;;;;;;16.93;43.30;101834.01;1551001;92;21138;-65
2022/04/14 07:42:39;;;;;;;4.30;2.87;;;;;;;16.57;43.96;101829.87;1527364;92;21522;-65
2022/04/14 07:45:07;;;;;;;3.83;2.40;;;;;;;16.57;43.96;101829.87;1559178;92;21143;-66
2022/04/14 07:47:34;;;;;;;6.17;2.67;;;;;;;16.48;44.27;101843.23;1580428;90;21124;-65
2022/04/14 07:50:01;;;;;;;3.52;2.65;;;;;;;16.45;44.34;101838.05;1586632;90;21089;-65
2022/04/14 07:52:27;;;;;;;5.30;2.60;;;;;;;16.45;44.21;101840.67;1586580;90;21603;-66
2022/04/14 07:54:55;;;;;;;2.55;2.20;;;;;;;16.40;44.41;101851.34;1586598;90;21118;-65
2022/04/14 07:57:23;;;;;;;6.35;2.98;;;;;;;16.41;44.66;101852.17;1586695;90;21112;-65
2022/04/14 07:59:50;;;;;;;3.60;2.33;;;;;;;16.47;44.57;101853.31;1586657;90;21572;-65
2022/04/14 08:02:19;;;;;;;4.17;2.33;;;;;;;16.50;44.74;101849.33;1544307;93;21139;-65
2022/04/14 08:04:45;;;;;;;7.45;3.60;;;;;;;16.50;44.78;101854.59;1569523;90;21102;-65
2022/04/14 08:07:14;;;;;;;3.58;2.33;;;;;;;16.50;45.06;101849.33;1597055;90;21933;-65
2022/04/14 08:09:41;;;;;;;4.83;2.75;;;;;;;16.51;45.34;101854.98;1597180;90;21100;-65
2022/04/14 08:12:10;;;;;;;3.37;2.22;;;;;;;16.51;45.15;101851.03;1597203;90;21129;-65
2022/04/14 08:14:37;;;;;;;4.85;2.37;;;;;;;16.54;45.09;101843.08;1597275;90;21011;-66
2022/04/14 08:17:06;;;;;;;2.98;2.40;;;;;;;16.55;45.07;101844.82;1564575;90;21117;-65
2022/04/14 08:19:34;;;;;;;5.03;2.37;;;;;;;16.54;45.01;101844.39;1597084;90;21544;-65
2022/04/14 08:22:05;;;;;;;3.58;2.33;;;;;;;16.55;45.29;101836.94;1569515;91;21113;-65
2022/04/14 08:24:34;;;;;;;3.58;2.37;;;;;;;16.62;45.20;101845.03;1597218;90;21210;-65
2022/04/14 08:27:04;;;;;;;2.50;2.30;;;;;;;16.64;45.01;101840.59;1597295;90;21065;-65
2022/04/14 08:29:31;;;;;;;3.70;2.67;;;;;;;16.66;45.00;101845.34;1569591;90;21094;-65
2022/04/14 08:31:58;;;;;;;2.60;2.40;;;;;;;16.67;44.91;101845.77;1631770;85;21078;-66
2022/04/14 08:34:26;;;;;;;3.33;2.20;;;;;;;16.68;44.72;101842.22;1667322;85;21099;-65
2022/04/14 08:36:55;;;;;;;2.67;2.10;;;;;;;16.69;44.33;101846.11;1667607;84;21558;-65
2022/04/14 08:39:21;;;;;;;5.17;2.98;;;;;;;16.72;43.95;101858.30;1666447;84;21067;-65
2022/04/14 08:41:55;;;;;;;4.33;2.45;;;;;;;16.73;43.98;101857.41;1634683;86;21577;-65
2022/04/14 08:44:22;;;;;;;4.22;2.15;;;;;;;16.75;44.08;101852.97;1634720;86;21082;-65
2022/04/14 08:46:51;;;;;;;3.72;2.30;;;;;;;16.78;43.78;101852.86;1646737;86;21127;-65
2022/04/14 08:49:17;;;;;;;3.60;2.12;;;;;;;16.77;44.03;101848.53;1664328;85;21042;-65
2022/04/14 08:51:44;;;;;;;4.28;2.40;;;;;;;16.80;44.29;101849.29;1665063;85;21104;-65
2022/04/14 08:54:13;;;;;;;3.20;2.35;;;;;;;16.84;44.00;101852.23;1666739;85;21078;-65
2022/04/14 08:56:42;;;;;;;7.75;2.30;;;;;;;16.90;43.63;101860.37;1648175;85;21523;-65
2022/04/14 08:59:08;;;;;;;4.00;2.37;;;;;;;16.92;43.64;101856.80;1667077;85;21023;-65
2022/04/14 09:01:37;;;;;;;6.45;2.42;;;;;;;16.96;43.27;101857.59;1664854;85;21526;-65
2022/04/14 09:04:05;;;;;;;3.85;2.30;;;;;;;17.00;43.19;101862.69;1666466;85;21043;-65
2022/04/14 09:06:33;;;;;;;3.77;2.20;;;;;;;17.06;43.65;101853.77;1666567;85;21574;-65
2022/04/14 09:09:00;;;;;;;3.37;2.30;;;;;;;17.16;43.49;101857.83;1667491;85;21051;-65
2022/04/14 09:11:30;;;;;;;2.62;2.42;;;;;;;17.22;43.61;101856.31;1667677;84;21055;-65
2022/04/14 09:13:58;;;;;;;3.72;2.40;;;;;;;17.29;43.15;101857.83;1666120;85;21456;-65
2022/04/14 09:16:26;;;;;;;3.62;2.65;;;;;;;17.37;43.00;101862.38;1650549;85;21079;-65
2022/04/14 09:18:53;;;;;;;3.20;2.30;;;;;;;17.41;42.95;101853.52;1664773;85;21083;-65
2022/04/14 09:21:20;;;;;;;3.85;2.40;;;;;;;17.48;42.69;101853.70;1663933;85;21598;-65
2022/04/14 09:23:52;;;;;;;5.08;2.70;;;;;;;17.54;42.33;101852.21;1664643;85;21039;-65
2022/04/14 09:26:23;;;;;;;2.85;2.12;;;;;;;17.61;42.21;101852.88;1665848;85;21058;-65
2022/04/14 09:29:10;;;;;;;3.40;2.40;;;;;;;17.71;42.36;101852.52;1658438;85;21535;-65
2022/04/14 09:31:49;;;;;;;3.83;2.35;;;;;;;17.83;42.12;101856.05;1668331;84;21131;-66
2022/04/14 09:34:18;;;;;;;4.22;2.42;;;;;;;17.98;41.35;101852.48;1664134;85;21011;-65
2022/04/14 09:37:06;;;;;;;2.80;1.90;;;;;;;18.13;41.19;101855.45;1666773;85;21138;-65
2022/04/14 09:39:58;;;;;;;2.55;2.22;;;;;;;18.26;40.34;101847.97;1663808;84;21039;-66
2022/04/14 09:42:30;;;;;;;3.05;2.50;;;;;;;18.38;39.26;101844.41;1664531;85;21062;-65
2022/04/14 09:45:29;;;;;;;5.00;2.42;;;;;;;18.48;39.30;101844.53;1607268;89;21089;-65
2022/04/14 09:48:06;;;;;;;3.58;2.50;;;;;;;18.57;38.93;101840.21;1608735;89;21173;-66
2022/04/14 09:50:39;;;;;;;2.98;2.15;;;;;;;18.64;38.31;101843.48;1614591;89;21105;-65
2022/04/14 09:53:09;;;;;;;3.10;2.52;;;;;;;18.65;38.89;101841.23;1614851;89;21105;-65
2022/04/14 09:55:53;;;;;;;3.22;2.20;;;;;;;18.66;39.12;101848.23;1563653;92;21100;-65
2022/04/14 09:58:26;;;;;;;4.70;2.12;;;;;;;18.67;39.23;101843.34;1504706;94;21110;-65
2022/04/14 10:00:57;;;;;;;3.83;2.23;;;;;;;18.66;39.02;101829.78;1505036;94;21157;-66
2022/04/14 10:03:31;;;;;;;3.47;2.80;;;;;;;18.65;39.32;101825.41;1505021;95;21354;-65
2022/04/14 10:06:02;;;;;;;3.75;2.27;;;;;;;18.67;39.80;101828.85;1504801;95;21153;-65
2022/04/14 10:08:31;;;;;;;3.10;2.33;;;;;;;18.72;39.26;101837.91;1504974;94;21057;-65
2022/04/14 10:11:08;;;;;;;2.90;2.27;;;;;;;18.79;38.59;101820.50;1504777;94;21105;-65
2022/04/14 10:13:38;;;;;;;6.47;2.45;;;;;;;18.88;38.48;101822.76;1501896;94;21123;-65
2022/04/14 10:16:07;;;;;;;6.00;2.50;;;;;;;18.99;37.87;101829.80;1500030;94;21085;-65
2022/04/14 10:18:33;;;;;;;3.90;2.40;;;;;;;19.07;37.57;101827.72;1504979;94;21652;-65
2022/04/14 10:21:00;;;;;;;4.45;2.72;;;;;;;19.13;37.37;101831.42;1504771;94;21148;-65
2022/04/14 10:23:27;;;;;;;3.62;2.77;;;;;;;19.14;37.30;101827.88;1504814;94;21138;-65
2022/04/14 10:25:55;;;;;;;4.67;2.22;;;;;;;19.18;37.44;101834.75;1504952;94;21093;-65
2022/04/14 10:28:23;;;;;;;5.33;2.80;;;;;;;19.26;37.71;101837.94;1471052;95;21104;-65
2022/04/14 10:30:57;;;;;;;4.05;2.35;;;;;;;19.31;37.70;101831.13;1480486;95;21084;-65
2022/04/14 10:33:25;;;;;;;3.70;2.60;;;;;;;19.36;37.38;101835.36;1480201;95;21111;-65
2022/04/14 10:35:53;;;;;;;3.75;2.60;;;;;;;19.39;37.22;101843.61;1494460;94;21722;-65
2022/04/14 10:38:27;;;;;;;5.37;2.75;;;;;;;19.40;37.29;101850.59;1528069;94;21138;-65
2022/04/14 10:41:20;;;;;;;4.65;2.72;;;;;;;19.41;37.65;101842.61;1534769;91;21118;-65
2022/04/14 10:43:47;;;;;;;7.22;3.08;;;;;;;19.44;37.42;101839.86;1548255;93;21089;-65
2022/04/14 10:46:17;;;;;;;4.92;2.47;;;;;;;19.52;37.33;101842.62;1573691;90;21367;-65
2022/04/14 10:48:45;;;;;;;4.15;3.40;;;;;;;19.56;36.76;101845.56;1550105;91;21116;-65
2022/04/14 10:51:29;;;;;;;4.20;2.72;;;;;;;19.61;36.50;101843.57;1551136;91;21164;-65
2022/04/14 10:54:05;;;;;;;5.72;2.72;;;;;;;19.66;36.54;101841.61;1640322;85;21025;-65
2022/04/14 10:56:41;;;;;;;4.25;2.50;;;;;;;19.72;36.59;101836.91;1643020;87;21089;-65
2022/04/14 10:59:12;;;;;;;5.50;2.40;;;;;;;19.79;36.48;101842.79;1642047;87;21565;-65
2022/04/14 11:01:51;;;;;;;6.83;3.08;;;;;;;19.82;36.50;101840.03;1644553;87;21073;-66
2022/04/14 11:04:32;;;;;;;3.12;2.15;;;;;;;19.82;36.45;101840.03;1644257;87;21065;-66
2022/04/14 11:07:14;;;;;;;5.08;2.50;;;;;;;19.81;36.36;101847.55;1641882;87;21100;-67
2022/04/14 11:09:48;;;;;;;;;;;;;;;19.78;36.55;101845.05;1643960;87;21018;-66
2022/04/14 11:12:25;;;;;;;2.95;2.08;;;;;;;19.75;36.90;101844.71;1644302;85;20415;-65
2022/04/14 11:15:03;;;;;;;3.90;2.47;;;;;;;19.71;37.08;101842.26;1644222;87;21021;-64
2022/04/14 11:17:52;;;;;;;4.10;2.37;;;;;;;19.70;36.62;101849.31;1583462;91;21061;-63
2022/04/14 11:20:37;;;;;;;3.00;2.70;;;;;;;19.73;36.54;101846.56;1583192;91;21574;-65
2022/04/14 11:23:24;;;;;;;5.40;3.12;;;;;;;19.78;36.83;101854.30;1573018;90;21064;-64
2022/04/14 11:26:09;;;;;;;5.15;2.65;;;;;;;19.82;37.01;101850.59;1583376;91;21106;-64
2022/04/14 11:28:40;;;;;;;7.15;2.95;;;;;;;19.84;36.58;101848.30;1578435;91;21082;-63
2022/04/14 11:31:22;;;;;;;4.77;2.30;;;;;;;19.84;36.60;101858.86;1584656;90;21112;-63
2022/04/14 11:33:51;;;;;;;4.72;2.50;;;;;;;19.84;36.66;101850.94;1574355;90;21060;-65
2022/04/14 11:36:20;;;;;;;6.00;2.45;;;;;;;19.83;36.64;101849.66;1584353;90;21121;-65